Time;durP1;ratioP1;P1;durP2;ratioP2;P2;SDS_P1;SDS_P2;PMS_P1;PMS_P2;Temp;Humidity;BMP_temperature;BMP_pressure;BME280_temperature;BME280_humidity;BME280_pressure;Samples;Min_cycle;Max_cycle;Signal;HPM_P1;HPM_P2
2023/03/29 00:01:12;;;;;;;0.52;0.52;;;;;;;7.90;63.68;101174.97;5184928;28;20044;-83
2023/03/29 00:03:44;;;;;;;0.30;0.30;;;;;;;7.86;63.29;101176.75;5151720;28;20030;-82
2023/03/29 00:06:20;;;;;;;0.35;0.35;;;;;;;7.80;64.63;101171.56;5198729;28;20427;-83
2023/03/29 00:08:53;;;;;;;0.50;0.50;;;;;;;7.79;64.34;101168.94;5168781;28;20477;-83
2023/03/29 00:11:24;;;;;;;0.57;0.57;;;;;;;7.76;64.89;101167.25;5151429;28;20036;-83
2023/03/29 00:13:55;;;;;;;0.30;0.30;;;;;;;7.75;63.94;101169.88;5202255;28;20027;-82
2023/03/29 00:16:25;;;;;;;0.57;0.57;;;;;;;7.76;63.99;101162.00;5160872;28;20042;-82
2023/03/29 00:18:56;;;;;;;0.30;0.30;;;;;;;7.82;63.30;101159.34;5152112;28;20025;-83
2023/03/29 00:21:27;;;;;;;0.20;0.20;;;;;;;7.84;63.31;101165.44;5149169;28;20041;-83
2023/03/29 00:23:57;;;;;;;0.70;0.70;;;;;;;7.81;63.51;101154.13;5166821;28;20033;-83
2023/03/29 00:26:30;;;;;;;0.38;0.38;;;;;;;7.82;63.61;101148.88;5167874;28;20068;-83
2023/03/29 00:29:01;;;;;;;0.70;0.70;;;;;;;7.82;64.09;101141.06;5152536;28;20057;-82
2023/03/29 00:31:31;;;;;;;0.32;0.32;;;;;;;7.91;63.27;101134.00;5182681;28;20049;-82
2023/03/29 00:34:02;;;;;;;0.40;0.40;;;;;;;7.86;63.05;101137.56;5170020;28;20056;-83
2023/03/29 00:36:32;;;;;;;0.47;0.45;;;;;;;7.81;64.23;101131.47;5177296;28;20041;-81
2023/03/29 00:39:03;;;;;;;1.38;1.27;;;;;;;7.84;63.66;101136.69;5170230;28;20026;-82
2023/03/29 00:41:36;;;;;;;9.02;0.63;;;;;;;7.82;63.91;101133.22;5152890;28;20057;-82
2023/03/29 00:44:53;;;;;;;0.30;0.30;;;;;;;7.67;64.91;101118.56;5178805;28;20060;-82
2023/03/29 00:47:42;;;;;;;0.50;0.50;;;;;;;7.75;64.34;101126.31;5144157;28;20116;-82
2023/03/29 00:50:28;;;;;;;0.60;0.60;;;;;;;7.77;63.75;101119.34;5152947;28;20041;-82
2023/03/29 00:53:13;;;;;;;0.30;0.30;;;;;;;7.74;64.22;101116.75;5163210;28;20034;-81
2023/03/29 00:55:54;;;;;;;1.00;1.00;;;;;;;7.76;63.53;101117.59;5176342;28;20038;-82
2023/03/29 00:58:37;;;;;;;0.65;0.65;;;;;;;7.77;63.94;101129.78;5164213;28;20080;-82
2023/03/29 01:01:18;;;;;;;0.52;0.52;;;;;;;7.67;63.83;101125.53;5147220;28;20030;-81
2023/03/29 01:03:53;;;;;;;0.63;0.63;;;;;;;7.65;64.68;101119.44;5178331;28;20018;-82
2023/03/29 01:06:28;;;;;;;0.93;0.88;;;;;;;7.68;63.78;101127.25;5162438;28;20050;-82
2023/03/29 01:09:09;;;;;;;0.30;0.30;;;;;;;7.75;63.64;101117.63;5160355;28;20049;-82
2023/03/29 01:11:54;;;;;;;0.52;0.52;;;;;;;7.78;63.88;101118.47;5195960;28;20056;-83
2023/03/29 01:14:38;;;;;;;0.40;0.40;;;;;;;7.68;64.81;101122.03;5193499;28;20038;-83
2023/03/29 01:17:15;;;;;;;1.10;1.00;;;;;;;7.70;63.81;101118.53;5164098;28;20034;-82
2023/03/29 01:19:56;;;;;;;4.38;1.48;;;;;;;7.76;64.03;101107.16;5146815;28;20124;-82
2023/03/29 01:22:42;;;;;;;0.57;0.57;;;;;;;7.78;63.89;101102.78;5184832;28;20049;-83
2023/03/29 01:25:25;;;;;;;0.30;0.30;;;;;;;7.77;63.84;101093.22;5161880;28;20443;-83
2023/03/29 01:28:07;;;;;;;0.30;0.30;;;;;;;7.75;64.41;101081.06;5171224;28;20068;-81
2023/03/29 01:30:50;;;;;;;1.55;0.98;;;;;;;7.79;63.22;101085.34;5169011;23;20039;-84
2023/03/29 01:33:25;;;;;;;6.43;0.67;;;;;;;7.80;63.74;101076.66;5155118;28;20312;-84
2023/03/29 01:36:03;;;;;;;0.30;0.30;;;;;;;7.76;64.24;101077.56;5152020;28;20054;-84
2023/03/29 01:39:03;;;;;;;0.95;0.88;;;;;;;7.81;64.33;101081.84;5152353;28;20444;-84
2023/03/29 01:42:01;;;;;;;0.30;0.30;;;;;;;7.83;63.86;101077.47;5120291;28;20145;-84
2023/03/29 01:44:47;;;;;;;0.30;0.30;;;;;;;7.82;64.38;101078.34;5168143;28;20050;-84
2023/03/29 01:47:20;;;;;;;0.40;0.40;;;;;;;7.83;63.98;101077.47;5152447;28;20492;-84
2023/03/29 01:50:07;;;;;;;0.30;0.30;;;;;;;7.82;64.09;101075.75;5152613;28;20042;-84
2023/03/29 01:52:45;;;;;;;0.32;0.32;;;;;;;7.83;63.53;101074.00;5140661;28;20031;-84
2023/03/29 01:55:31;;;;;;;0.43;0.43;;;;;;;7.80;64.24;101074.91;5150859;28;20037;-84
2023/03/29 01:58:05;;;;;;;0.68;0.50;;;;;;;7.78;64.73;101068.84;5165242;28;20145;-84
2023/03/29 02:00:38;;;;;;;0.35;0.35;;;;;;;7.77;64.09;101059.25;5152926;28;20075;-84
2023/03/29 02:03:09;;;;;;;0.45;0.45;;;;;;;7.78;64.59;101062.72;5152842;28;20030;-84
2023/03/29 02:05:41;;;;;;;0.38;0.38;;;;;;;7.81;63.80;101068.78;5153826;28;20507;-84
2023/03/29 02:08:15;;;;;;;0.60;0.60;;;;;;;7.74;64.52;101061.03;5169102;28;20117;-84
2023/03/29 02:10:46;;;;;;;0.30;0.30;;;;;;;7.78;64.43;101053.16;5158015;28;20121;-84
2023/03/29 02:13:18;;;;;;;0.30;0.30;;;;;;;7.82;64.03;101044.41;5137475;28;20018;-84
2023/03/29 02:15:48;;;;;;;0.50;0.50;;;;;;;7.83;64.37;101050.50;5134371;28;20388;-84
2023/03/29 02:18:19;;;;;;;0.32;0.32;;;;;;;7.86;64.60;101046.09;5146821;28;20084;-84
2023/03/29 02:20:51;;;;;;;0.30;0.30;;;;;;;7.82;64.47;101039.16;5154209;28;20539;-84
2023/03/29 02:23:33;;;;;;;0.20;0.20;;;;;;;7.81;63.92;101053.09;5128387;28;20034;-83
2023/03/29 02:26:05;;;;;;;0.30;0.30;;;;;;;7.79;64.19;101041.84;5156470;28;20049;-84
2023/03/29 02:28:36;;;;;;;1.08;1.00;;;;;;;7.85;63.90;101039.16;5152239;28;20401;-84
2023/03/29 02:31:36;;;;;;;0.50;0.50;;;;;;;7.85;64.38;101044.38;5152671;28;20038;-84
2023/03/29 02:34:29;;;;;;;0.30;0.30;;;;;;;7.78;64.73;101036.59;5154633;28;20390;-84
2023/03/29 02:37:05;;;;;;;0.93;0.93;;;;;;;7.82;64.02;101028.72;5151721;28;20565;-84
2023/03/29 02:39:37;;;;;;;0.40;0.40;;;;;;;7.86;64.03;101040.00;5167616;28;20050;-84
2023/03/29 02:42:09;;;;;;;0.30;0.30;;;;;;;7.84;64.06;101039.19;5152480;28;20371;-84
2023/03/29 02:44:43;;;;;;;0.32;0.32;;;;;;;7.77;64.44;101040.13;5125276;28;20034;-84
2023/03/29 02:47:20;;;;;;;0.32;0.32;;;;;;;7.81;63.92;101037.44;5150418;28;20101;-84
2023/03/29 02:49:51;;;;;;;0.50;0.50;;;;;;;7.77;64.46;101038.38;5136702;28;20046;-83
2023/03/29 02:52:26;;;;;;;0.52;0.52;;;;;;;7.79;64.42;101036.59;5123972;28;20053;-84
2023/03/29 02:54:59;;;;;;;3.17;1.40;;;;;;;7.84;64.35;101034.81;5137977;28;20062;-84
2023/03/29 02:57:31;;;;;;;0.30;0.30;;;;;;;7.83;64.53;101030.47;5163829;28;20050;-84
2023/03/29 03:00:03;;;;;;;0.85;0.85;;;;;;;7.78;64.65;101021.81;5143879;28;20084;-84
2023/03/29 03:02:34;;;;;;;0.30;0.30;;;;;;;7.82;64.43;101023.50;5165520;28;20027;-84
2023/03/29 03:05:05;;;;;;;0.30;0.30;;;;;;;7.91;63.45;101029.50;5130948;28;20093;-84
2023/03/29 03:07:36;;;;;;;0.40;0.40;;;;;;;7.79;64.99;101023.56;5165251;28;20455;-84
2023/03/29 03:10:08;;;;;;;0.20;0.20;;;;;;;7.80;65.17;101032.25;5136859;28;20046;-84
2023/03/29 03:12:39;;;;;;;0.40;0.40;;;;;;;7.78;65.14;101037.50;5138394;28;20114;-84
2023/03/29 03:15:10;;;;;;;0.30;0.30;;;;;;;7.81;65.16;101028.75;5137943;28;20345;-84
2023/03/29 03:17:40;;;;;;;0.30;0.30;;;;;;;7.77;65.25;101033.13;5155128;28;20049;-84
2023/03/29 03:20:12;;;;;;;0.32;0.32;;;;;;;7.80;64.72;101024.41;5165465;28;20043;-84
2023/03/29 03:22:47;;;;;;;1.38;1.15;;;;;;;7.80;65.01;101025.28;5162282;28;20038;-84
2023/03/29 03:25:19;;;;;;;0.40;0.40;;;;;;;7.84;64.59;101020.88;5164444;28;20065;-84
2023/03/29 03:27:50;;;;;;;0.30;0.30;;;;;;;7.82;64.43;101020.88;5132488;28;20387;-84
2023/03/29 03:30:20;;;;;;;0.50;0.50;;;;;;;7.82;64.78;101023.50;5164692;28;20035;-83
2023/03/29 03:32:53;;;;;;;0.80;0.80;;;;;;;7.91;64.50;101006.00;5164063;28;20057;-84
2023/03/29 03:35:24;;;;;;;0.40;0.40;;;;;;;7.88;64.40;101015.63;5167784;28;20038;-84
2023/03/29 03:37:54;;;;;;;0.45;0.45;;;;;;;7.84;64.93;101015.66;5151137;28;20041;-84
2023/03/29 03:40:24;;;;;;;1.60;1.50;;;;;;;7.83;65.23;101000.88;5152823;28;20089;-84
2023/03/29 03:42:55;;;;;;;0.68;0.68;;;;;;;7.85;65.01;100999.97;5128367;28;20026;-84
2023/03/29 03:45:25;;;;;;;0.70;0.57;;;;;;;7.95;64.06;100992.88;5165377;28;20042;-84
2023/03/29 03:47:56;;;;;;;0.25;0.25;;;;;;;7.95;64.12;100992.03;5145004;28;20089;-84
2023/03/29 03:50:27;;;;;;;0.40;0.40;;;;;;;7.93;64.86;100993.78;5166099;28;20034;-84
2023/03/29 03:52:57;;;;;;;0.20;0.20;;;;;;;7.96;64.64;100985.91;5167034;28;20026;-84
2023/03/29 03:55:28;;;;;;;0.43;0.43;;;;;;;7.96;64.73;100986.75;5154736;28;20116;-84
2023/03/29 03:57:59;;;;;;;0.52;0.52;;;;;;;7.93;64.84;100992.03;5151826;28;20034;-84
2023/03/29 04:00:29;;;;;;;0.30;0.30;;;;;;;7.91;64.64;100988.59;5148253;28;20324;-84
2023/03/29 04:03:01;;;;;;;0.30;0.30;;;;;;;7.93;65.35;100984.22;5164352;28;20022;-84
2023/03/29 04:05:31;;;;;;;0.40;0.40;;;;;;;7.96;65.23;100980.69;5153068;28;20456;-84
2023/03/29 04:08:02;;;;;;;0.30;0.30;;;;;;;7.94;65.55;100979.84;5148575;28;20030;-84
2023/03/29 04:10:33;;;;;;;0.28;0.28;;;;;;;7.97;65.38;100985.88;5166921;28;20049;-84
2023/03/29 04:13:04;;;;;;;0.95;0.95;;;;;;;7.92;66.40;100981.59;5125679;28;20031;-84
2023/03/29 04:15:37;;;;;;;0.60;0.60;;;;;;;7.90;65.93;100984.22;5150016;28;20464;-84
2023/03/29 04:18:07;;;;;;;0.77;0.77;;;;;;;7.92;66.29;100981.59;5140207;28;20053;-84
2023/03/29 04:20:38;;;;;;;1.17;1.10;;;;;;;7.92;66.16;100982.47;5167390;28;20491;-84
2023/03/29 04:23:08;;;;;;;0.30;0.30;;;;;;;8.00;65.15;100985.88;5151075;28;20027;-84
2023/03/29 04:25:39;;;;;;;0.28;0.28;;;;;;;7.98;65.19;100986.75;5149267;28;20493;-84
2023/03/29 04:28:10;;;;;;;0.30;0.30;;;;;;;7.94;65.79;100978.06;5156589;28;20065;-84
2023/03/29 04:30:41;;;;;;;0.52;0.52;;;;;;;7.94;65.86;100985.91;5143939;28;20574;-84
2023/03/29 04:33:11;;;;;;;0.22;0.22;;;;;;;8.01;65.46;100984.09;5143282;28;20061;-84
2023/03/29 04:35:42;;;;;;;0.30;0.30;;;;;;;8.05;65.12;100977.97;5129416;28;20121;-84
2023/03/29 04:38:12;;;;;;;0.30;0.30;;;;;;;8.00;66.04;100975.41;5162612;28;20653;-84
2023/03/29 04:40:43;;;;;;;0.85;0.60;;;;;;;7.96;66.54;100967.63;5159322;28;20057;-84
2023/03/29 04:43:14;;;;;;;0.30;0.30;;;;;;;7.96;66.53;100970.25;5128681;28;20668;-84
2023/03/29 04:45:44;;;;;;;0.55;0.50;;;;;;;7.97;66.45;100961.53;5143444;28;20503;-83
2023/03/29 04:48:15;;;;;;;0.20;0.20;;;;;;;7.98;66.18;100963.22;5155316;28;20142;-84
2023/03/29 04:50:46;;;;;;;2.35;0.45;;;;;;;8.00;66.28;100961.47;5130965;28;20026;-83
2023/03/29 04:53:16;;;;;;;0.35;0.35;;;;;;;7.99;66.05;100967.56;5178115;28;20022;-86
2023/03/29 04:55:47;;;;;;;0.40;0.40;;;;;;;8.01;66.31;100965.81;5162885;28;20041;-84
2023/03/29 04:58:17;;;;;;;0.20;0.20;;;;;;;8.02;66.36;100972.78;5161004;28;20022;-85
2023/03/29 05:00:48;;;;;;;0.47;0.47;;;;;;;8.06;65.77;100964.00;5138835;28;20035;-85
2023/03/29 05:03:18;;;;;;;0.73;0.73;;;;;;;8.07;65.65;100963.09;5170869;28;20194;-87
2023/03/29 05:05:49;;;;;;;0.30;0.30;;;;;;;8.07;66.45;100959.66;5150736;28;20127;-87
2023/03/29 05:08:20;;;;;;;0.30;0.30;;;;;;;8.06;65.68;100964.00;5143454;28;20062;-86
2023/03/29 05:10:50;;;;;;;0.40;0.40;;;;;;;8.11;65.26;100956.09;5150827;28;20379;-85
2023/03/29 05:13:21;;;;;;;0.35;0.35;;;;;;;8.05;66.13;100967.50;5171853;28;20027;-85
2023/03/29 05:15:51;;;;;;;1.08;0.98;;;;;;;8.03;66.62;100969.28;5167838;28;20101;-86
2023/03/29 05:18:22;;;;;;;0.73;0.73;;;;;;;8.01;66.62;100968.41;5148392;28;20037;-88
2023/03/29 05:20:53;;;;;;;1.15;1.05;;;;;;;8.04;66.81;100964.03;5123608;28;20038;-86
2023/03/29 05:23:23;;;;;;;0.30;0.30;;;;;;;8.02;66.60;100964.94;5163724;28;20026;-85
2023/03/29 05:25:54;;;;;;;0.40;0.40;;;;;;;8.04;66.83;100965.78;5147661;28;20034;-84
2023/03/29 05:28:24;;;;;;;2.72;0.68;;;;;;;8.09;66.57;100965.72;5156362;28;20479;-85
2023/03/29 05:31:03;;;;;;;0.47;0.47;;;;;;;8.09;66.68;100960.50;5123431;28;20042;-85
2023/03/29 05:33:34;;;;;;;0.30;0.30;;;;;;;8.09;66.14;100953.50;5153082;28;20054;-86
2023/03/29 05:36:07;;;;;;;0.50;0.50;;;;;;;8.05;67.45;100951.84;5153546;28;20038;-86
2023/03/29 05:38:38;;;;;;;0.50;0.50;;;;;;;8.06;66.65;100940.47;5126139;28;20030;-88
2023/03/29 05:41:09;;;;;;;0.77;0.77;;;;;;;8.09;66.75;100947.44;5137867;28;20260;-84
2023/03/29 05:43:40;;;;;;;0.75;0.73;;;;;;;8.11;66.43;100940.41;5132736;28;20616;-85
2023/03/29 05:46:11;;;;;;;0.28;0.28;;;;;;;8.07;67.01;100939.59;5152530;28;20077;-84
2023/03/29 05:48:42;;;;;;;0.43;0.43;;;;;;;8.09;66.82;100945.66;5134609;28;20182;-87
2023/03/29 05:51:12;;;;;;;0.50;0.50;;;;;;;8.14;66.40;100946.47;5153660;28;20046;-87
2023/03/29 05:53:44;;;;;;;0.30;0.30;;;;;;;8.18;67.22;100937.72;5160873;28;20239;-87
2023/03/29 05:56:15;;;;;;;1.10;0.80;;;;;;;8.10;67.19;100942.19;5158670;28;20046;-89
2023/03/29 05:58:45;;;;;;;0.57;0.57;;;;;;;8.10;66.98;100944.78;5137616;28;20070;-83
2023/03/29 06:01:19;;;;;;;0.40;0.40;;;;;;;8.07;67.42;100942.19;5171402;28;20058;-89
2023/03/29 06:03:50;;;;;;;0.30;0.30;;;;;;;8.07;67.19;100939.59;5134752;28;20027;-86
2023/03/29 06:06:21;;;;;;;0.50;0.50;;;;;;;8.06;67.43;100935.25;5150214;28;20485;-85
2023/03/29 06:08:51;;;;;;;2.17;1.85;;;;;;;8.09;66.96;100942.19;5126495;28;20035;-86
2023/03/29 06:11:23;;;;;;;0.40;0.40;;;;;;;8.12;66.98;100939.53;5123896;28;20450;-85
2023/03/29 06:13:53;;;;;;;3.90;0.98;;;;;;;8.12;67.25;100943.03;5169334;28;20027;-86
2023/03/29 06:16:24;;;;;;;0.40;0.40;;;;;;;8.13;66.91;100944.75;5153302;28;20459;-85
2023/03/29 06:18:55;;;;;;;0.20;0.20;;;;;;;8.17;66.47;100946.44;5133812;28;20034;-85
2023/03/29 06:21:26;;;;;;;0.50;0.50;;;;;;;8.18;66.92;100952.53;5130084;28;20128;-88
2023/03/29 06:23:56;;;;;;;0.50;0.50;;;;;;;8.19;66.62;100944.66;5138967;28;20125;-85
2023/03/29 06:26:26;;;;;;;0.30;0.30;;;;;;;8.19;66.29;100941.16;5147742;28;20038;-88
2023/03/29 06:28:57;;;;;;;0.30;0.30;;;;;;;8.18;66.82;100948.16;5167504;28;20034;-85
2023/03/29 06:31:28;;;;;;;0.30;0.30;;;;;;;8.18;66.89;100950.78;5169193;28;20038;-86
2023/03/29 06:34:00;;;;;;;0.35;0.35;;;;;;;8.21;66.58;100951.63;5154792;28;20026;-86
2023/03/29 06:36:33;;;;;;;0.32;0.32;;;;;;;8.18;67.67;100953.38;5136224;28;20039;-87
2023/03/29 06:39:04;;;;;;;0.63;0.63;;;;;;;8.26;66.63;100948.06;5150331;28;20201;-86
2023/03/29 06:41:35;;;;;;;0.30;0.30;;;;;;;8.29;67.20;100949.78;5129960;28;20130;-86
2023/03/29 06:44:05;;;;;;;0.30;0.30;;;;;;;8.31;66.68;100953.22;5141314;28;20086;-85
2023/03/29 06:46:36;;;;;;;0.30;0.30;;;;;;;8.31;67.31;100955.81;5169972;28;20022;-85
2023/03/29 06:49:06;;;;;;;0.32;0.32;;;;;;;8.33;67.38;100957.56;5140244;28;20031;-89
2023/03/29 06:51:38;;;;;;;0.30;0.30;;;;;;;8.37;67.61;100955.75;5171021;28;20128;-86
2023/03/29 06:54:09;;;;;;;0.50;0.50;;;;;;;8.36;67.71;100961.88;5151795;28;20019;-89
2023/03/29 06:56:39;;;;;;;0.40;0.40;;;;;;;8.42;67.06;100959.16;5171441;28;20034;-88
2023/03/29 06:59:10;;;;;;;0.50;0.50;;;;;;;8.45;66.70;100963.47;5138055;28;20027;-85
2023/03/29 07:01:41;;;;;;;0.35;0.35;;;;;;;8.46;67.12;100963.47;5154096;28;20377;-86
2023/03/29 07:04:12;;;;;;;0.50;0.50;;;;;;;8.46;67.31;100973.06;5150460;28;20033;-86
2023/03/29 07:06:47;;;;;;;0.30;0.30;;;;;;;8.52;67.04;100970.38;5151013;28;20026;-87
2023/03/29 07:09:19;;;;;;;0.70;0.70;;;;;;;8.45;67.87;100977.44;5152630;28;20392;-88
2023/03/29 07:11:50;;;;;;;0.30;0.30;;;;;;;8.43;68.60;100983.56;5145901;28;20022;-83
2023/03/29 07:14:20;;;;;;;0.38;0.38;;;;;;;8.53;67.64;100971.25;5144156;28;20030;-85
2023/03/29 07:16:51;;;;;;;0.30;0.30;;;;;;;8.50;69.29;100980.88;5158210;28;20027;-87
2023/03/29 07:19:23;;;;;;;0.30;0.30;;;;;;;8.39;70.50;100977.50;5159110;28;20026;-88
2023/03/29 07:21:53;;;;;;;0.30;0.30;;;;;;;8.47;69.52;100980.91;5172593;28;20049;-87
2023/03/29 07:24:25;;;;;;;1.10;1.00;;;;;;;8.55;69.33;100972.97;5135407;28;20050;-84
2023/03/29 07:26:57;;;;;;;0.70;0.70;;;;;;;8.61;68.15;100977.25;5157605;28;20549;-84
2023/03/29 07:29:27;;;;;;;0.30;0.30;;;;;;;8.60;68.87;100971.13;5189499;23;20149;-83
2023/03/29 07:31:59;;;;;;;0.68;0.65;;;;;;;8.67;69.31;100966.69;5151279;28;20081;-83
2023/03/29 07:34:30;;;;;;;0.50;0.50;;;;;;;8.68;69.05;100968.41;5151746;28;20311;-83
2023/03/29 07:37:00;;;;;;;0.43;0.43;;;;;;;8.70;70.72;100966.63;5147630;28;20029;-83
2023/03/29 07:39:31;;;;;;;0.40;0.40;;;;;;;8.71;69.10;100968.38;5164276;28;20030;-83
2023/03/29 07:42:02;;;;;;;0.40;0.40;;;;;;;8.82;69.15;100966.44;5149189;28;20034;-84
2023/03/29 07:44:32;;;;;;;0.85;0.85;;;;;;;8.86;69.64;100961.16;5149483;28;20034;-84
2023/03/29 07:47:04;;;;;;;2.30;1.25;;;;;;;8.92;69.64;100963.69;5171664;28;20037;-83
2023/03/29 07:49:34;;;;;;;0.40;0.40;;;;;;;8.91;71.14;100975.03;5161472;28;20038;-83
2023/03/29 07:52:05;;;;;;;0.50;0.50;;;;;;;8.93;72.26;100975.88;5174014;28;20035;-84
2023/03/29 07:54:35;;;;;;;0.40;0.40;;;;;;;8.98;71.16;100981.88;5166845;28;20062;-83
2023/03/29 07:57:06;;;;;;;0.52;0.52;;;;;;;9.08;71.38;100972.16;5158604;28;20018;-84
2023/03/29 07:59:36;;;;;;;0.30;0.30;;;;;;;9.11;72.89;100972.97;5143823;28;20030;-84
2023/03/29 08:02:09;;;;;;;0.30;0.30;;;;;;;9.16;71.39;100969.38;5153290;28;20026;-84
2023/03/29 08:04:40;;;;;;;0.88;0.85;;;;;;;9.12;72.09;100974.69;5153748;28;20034;-83
2023/03/29 08:07:12;;;;;;;0.52;0.52;;;;;;;9.23;71.38;100971.00;5169691;28;20122;-84
2023/03/29 08:09:43;;;;;;;0.30;0.30;;;;;;;9.30;70.83;100967.38;5167528;28;20035;-84
2023/03/29 08:12:14;;;;;;;0.65;0.55;;;;;;;9.37;71.06;100979.50;5170884;28;20030;-83
2023/03/29 08:14:45;;;;;;;0.70;0.70;;;;;;;9.41;71.31;100983.78;5138557;28;20042;-84
2023/03/29 08:17:15;;;;;;;0.98;0.68;;;;;;;9.48;70.52;100976.69;5167701;28;20211;-84
2023/03/29 08:19:46;;;;;;;0.40;0.40;;;;;;;9.53;70.29;100984.44;5150566;28;20080;-84
2023/03/29 08:22:16;;;;;;;0.30;0.30;;;;;;;9.53;70.36;100990.53;5148101;28;20030;-85
2023/03/29 08:24:47;;;;;;;0.85;0.85;;;;;;;9.49;70.85;100988.00;5165212;28;20038;-84
2023/03/29 08:27:18;;;;;;;0.55;0.55;;;;;;;9.54;70.69;100991.41;5149124;28;20628;-83
2023/03/29 08:29:48;;;;;;;0.28;0.28;;;;;;;9.59;70.65;100984.34;5182488;28;20524;-84
2023/03/29 08:32:19;;;;;;;0.40;0.40;;;;;;;9.55;71.19;100983.53;5150568;28;20030;-84
2023/03/29 08:34:49;;;;;;;0.30;0.30;;;;;;;9.57;71.46;100980.88;5150371;28;20038;-83
2023/03/29 08:37:20;;;;;;;0.40;0.40;;;;;;;9.61;71.38;100985.19;5150211;28;20034;-85
2023/03/29 08:39:51;;;;;;;0.38;0.38;;;;;;;9.64;71.05;100972.00;5167196;28;20039;-84
2023/03/29 08:42:33;;;;;;;2.03;1.60;;;;;;;9.68;71.03;100972.78;5159168;28;20026;-82
2023/03/29 08:45:25;;;;;;;0.40;0.40;;;;;;;9.74;70.89;100965.69;5161818;28;20038;-83
2023/03/29 08:48:14;;;;;;;0.30;0.30;;;;;;;9.77;70.90;100965.66;5177497;28;20019;-83
2023/03/29 08:50:51;;;;;;;0.60;0.60;;;;;;;9.79;71.70;100960.38;5159730;28;20038;-84
2023/03/29 08:53:30;;;;;;;0.35;0.35;;;;;;;9.79;71.91;100967.38;5180378;28;20114;-85
2023/03/29 08:56:06;;;;;;;1.95;0.85;;;;;;;9.87;71.53;100957.59;5154680;28;20034;-83
2023/03/29 08:58:37;;;;;;;0.30;0.30;;;;;;;9.91;71.21;100959.25;5182848;28;20562;-83
2023/03/29 09:01:10;;;;;;;0.40;0.40;;;;;;;9.96;71.57;100957.38;5146053;28;20039;-83
2023/03/29 09:03:46;;;;;;;0.50;0.50;;;;;;;10.03;71.33;100955.50;5163419;28;20532;-86
2023/03/29 09:06:20;;;;;;;0.60;0.60;;;;;;;10.08;70.93;100951.91;5143562;28;20046;-83
2023/03/29 09:08:52;;;;;;;0.57;0.57;;;;;;;10.08;71.53;100956.28;5159134;28;20050;-83
2023/03/29 09:11:22;;;;;;;0.55;0.55;;;;;;;10.13;71.26;100964.03;5145633;28;20121;-83
2023/03/29 09:14:11;;;;;;;0.50;0.50;;;;;;;10.18;71.62;100965.66;5152692;28;20122;-83
2023/03/29 09:17:10;;;;;;;0.50;0.50;;;;;;;10.25;71.65;100966.41;5157728;28;20288;-84
2023/03/29 09:19:55;;;;;;;0.55;0.55;;;;;;;10.29;71.35;100960.19;5146225;28;20385;-83
2023/03/29 09:22:32;;;;;;;0.65;0.65;;;;;;;10.35;71.04;100960.06;5145730;28;20544;-83
2023/03/29 09:25:13;;;;;;;1.77;1.13;;;;;;;10.43;71.13;100961.69;5144462;28;20042;-83
2023/03/29 09:27:57;;;;;;;0.20;0.20;;;;;;;10.48;70.99;100955.44;5171303;28;20034;-83
2023/03/29 09:30:33;;;;;;;0.63;0.63;;;;;;;10.51;70.51;100952.72;5161527;28;20046;-84
2023/03/29 09:33:06;;;;;;;0.40;0.40;;;;;;;10.58;70.68;100960.47;5167197;28;20022;-82
2023/03/29 09:35:45;;;;;;;1.10;0.52;;;;;;;10.63;70.76;100955.97;5159560;28;20523;-84
2023/03/29 09:38:17;;;;;;;0.57;0.57;;;;;;;10.63;70.81;100951.56;5140132;28;20438;-84
2023/03/29 09:40:54;;;;;;;0.40;0.40;;;;;;;10.71;70.94;100956.66;5160983;28;20511;-84
2023/03/29 09:43:44;;;;;;;0.30;0.30;;;;;;;10.71;70.55;100957.50;5143402;28;20210;-83
2023/03/29 09:46:23;;;;;;;0.40;0.40;;;;;;;10.75;70.63;100957.44;5142521;28;20385;-83
2023/03/29 09:48:55;;;;;;;0.28;0.28;;;;;;;10.80;71.18;100950.31;5129352;28;20125;-84
2023/03/29 09:51:28;;;;;;;7.93;0.50;;;;;;;10.84;70.50;100951.97;5158912;28;20030;-83
2023/03/29 09:53:59;;;;;;;0.30;0.30;;;;;;;11.03;70.04;100950.59;5146073;28;20111;-83
2023/03/29 09:56:30;;;;;;;0.55;0.55;;;;;;;11.00;69.64;100961.19;5131720;28;20041;-83
2023/03/29 09:59:01;;;;;;;0.68;0.68;;;;;;;10.99;69.82;100956.00;5147421;28;20202;-84
2023/03/29 10:01:45;;;;;;;1.65;1.00;;;;;;;11.05;70.41;100949.69;5144841;28;20038;-85
2023/03/29 10:04:16;;;;;;;0.98;0.85;;;;;;;11.10;70.18;100953.94;5161033;28;20038;-83
2023/03/29 10:06:50;;;;;;;0.30;0.30;;;;;;;11.18;69.88;100941.47;5144712;28;20049;-84
2023/03/29 10:09:25;;;;;;;0.30;0.30;;;;;;;11.20;70.29;100949.31;5158188;28;20072;-83
2023/03/29 10:12:01;;;;;;;0.20;0.20;;;;;;;11.25;70.04;100946.56;5162101;28;20049;-83
2023/03/29 10:33:40;;;;;;;0.20;0.20;;;;;;;11.76;66.89;100924.16;5179782;28;20563;-83
2023/03/29 10:36:12;;;;;;;0.82;0.82;;;;;;;11.80;66.55;100928.41;5175796;28;20054;-83
2023/03/29 10:38:43;;;;;;;0.43;0.43;;;;;;;11.86;66.07;100928.22;5126397;28;20045;-82
2023/03/29 10:41:16;;;;;;;2.15;1.15;;;;;;;11.99;66.75;100926.13;5140373;28;20438;-83
2023/03/29 10:43:49;;;;;;;0.30;0.30;;;;;;;12.03;66.43;100919.00;5126756;28;20118;-83
2023/03/29 10:46:31;;;;;;;0.32;0.30;;;;;;;12.12;67.39;100914.34;5151611;28;20129;-83
2023/03/29 10:49:05;;;;;;;5.93;1.48;;;;;;;12.21;66.54;100917.59;5148737;28;20518;-83
2023/03/29 10:51:35;;;;;;;4.75;1.20;;;;;;;12.20;65.99;100908.84;5143428;28;20465;-84
2023/03/29 10:54:13;;;;;;;0.40;0.40;;;;;;;12.21;66.72;100912.34;5141593;28;20429;-83
2023/03/29 10:56:50;;;;;;;0.63;0.63;;;;;;;12.21;65.01;100907.94;5142593;28;20025;-83
2023/03/29 10:59:28;;;;;;;0.28;0.28;;;;;;;12.28;65.61;100908.63;5162248;28;20064;-83
2023/03/29 11:02:14;;;;;;;0.43;0.43;;;;;;;12.33;65.70;100913.72;5154617;28;20429;-83
2023/03/29 11:05:15;;;;;;;0.40;0.40;;;;;;;12.22;65.61;100920.19;5143193;28;20428;-84
2023/03/29 11:07:48;;;;;;;0.30;0.30;;;;;;;12.31;65.37;100913.78;5163818;28;20034;-84
2023/03/29 11:10:28;;;;;;;;;;;;;;;12.30;65.50;100905.94;5167541;28;20576;-84
2023/03/29 11:13:07;;;;;;;0.20;0.20;;;;;;;12.45;65.32;100900.16;5148582;28;19964;-83
2023/03/29 11:15:56;;;;;;;1.80;0.98;;;;;;;12.46;65.51;100895.78;5186714;28;20053;-85
2023/03/29 11:18:41;;;;;;;0.20;0.20;;;;;;;12.62;65.21;100891.75;5176357;28;20038;-85
2023/03/29 11:21:38;;;;;;;0.35;0.35;;;;;;;12.75;64.21;100897.47;5164521;28;20048;-85
2023/03/29 11:24:26;;;;;;;0.60;0.60;;;;;;;12.85;64.40;100893.59;5183571;28;20029;-84
2023/03/29 11:27:22;;;;;;;0.28;0.28;;;;;;;12.91;64.98;100888.13;5170743;28;20042;-85
2023/03/29 11:30:23;;;;;;;0.32;0.32;;;;;;;12.98;64.40;100887.91;5187491;28;20039;-84
2023/03/29 11:33:03;;;;;;;0.30;0.30;;;;;;;13.13;64.92;100881.28;5180458;28;20094;-84
2023/03/29 11:35:51;;;;;;;0.25;0.25;;;;;;;13.11;64.53;100872.56;5185906;28;20033;-83
2023/03/29 11:38:56;;;;;;;0.30;0.30;;;;;;;13.19;64.97;100881.03;5186069;28;20050;-83
2023/03/29 11:41:32;;;;;;;0.35;0.35;;;;;;;13.19;65.09;100874.00;5166853;28;20026;-84
2023/03/29 11:44:15;;;;;;;0.40;0.40;;;;;;;13.26;64.72;100876.44;5152195;28;20037;-82
2023/03/29 11:46:53;;;;;;;0.30;0.30;;;;;;;13.34;64.58;100875.22;5159248;28;20041;-83
2023/03/29 11:49:28;;;;;;;0.20;0.20;;;;;;;13.29;65.36;100871.03;5175915;28;20061;-84
2023/03/29 11:51:58;;;;;;;0.47;0.47;;;;;;;13.38;65.40;100868.97;5136970;28;20109;-83
2023/03/29 11:54:54;;;;;;;0.73;0.73;;;;;;;13.45;64.88;100866.94;5153477;28;20129;-84
2023/03/29 11:58:03;;;;;;;0.30;0.30;;;;;;;13.38;64.70;100870.69;5170068;28;20051;-84
2023/03/29 12:01:02;;;;;;;0.40;0.40;;;;;;;13.42;64.83;100869.72;5095989;29;20524;-85
2023/03/29 12:03:37;;;;;;;0.40;0.40;;;;;;;13.36;64.56;100872.53;5162957;28;20327;-85
2023/03/29 12:06:32;;;;;;;3.83;1.30;;;;;;;13.41;64.47;100857.44;5181113;28;20038;-84
2023/03/29 12:09:11;;;;;;;0.20;0.20;;;;;;;13.46;64.60;100857.28;5166524;28;20026;-85
2023/03/29 12:11:54;;;;;;;0.95;0.82;;;;;;;13.54;64.47;100844.69;5164013;28;20564;-85
2023/03/29 12:14:33;;;;;;;0.50;0.50;;;;;;;13.67;64.13;100845.06;5129719;28;20045;-84
2023/03/29 12:17:10;;;;;;;0.45;0.45;;;;;;;13.82;64.15;100844.47;5145883;28;20037;-84
2023/03/29 12:19:49;;;;;;;0.57;0.57;;;;;;;13.90;64.80;100838.91;5153348;28;20046;-84
2023/03/29 12:22:21;;;;;;;0.20;0.20;;;;;;;14.01;63.94;100838.47;5147354;28;20034;-84
2023/03/29 12:24:54;;;;;;;0.55;0.55;;;;;;;14.06;63.18;100841.81;5147178;28;20046;-84
2023/03/29 12:27:42;;;;;;;2.08;0.68;;;;;;;14.05;62.85;100840.06;5180997;28;20049;-85